sensor_id;sensor_type;location;lat;lon;timestamp;P1;durP1;ratioP1;P2;durP2;ratioP2
19285;SDS011;9776;50.798;6.430;2023-07-29T00:02:18;1.08;;;0.90;;
19285;SDS011;9776;50.798;6.430;2023-07-29T00:04:45;1.00;;;0.90;;
19285;SDS011;9776;50.798;6.430;2023-07-29T00:07:12;1.60;;;1.17;;
19285;SDS011;9776;50.798;6.430;2023-07-29T00:09:38;1.42;;;0.98;;
19285;SDS011;9776;50.798;6.430;2023-07-29T00:12:05;2.95;;;1.10;;
19285;SDS011;9776;50.798;6.430;2023-07-29T00:14:34;1.13;;;1.00;;
19285;SDS011;9776;50.798;6.430;2023-07-29T00:17:00;1.63;;;1.30;;
19285;SDS011;9776;50.798;6.430;2023-07-29T00:19:27;3.88;;;1.05;;
19285;SDS011;9776;50.798;6.430;2023-07-29T00:21:54;1.50;;;1.20;;
19285;SDS011;9776;50.798;6.430;2023-07-29T00:24:20;2.00;;;1.20;;
19285;SDS011;9776;50.798;6.430;2023-07-29T00:26:47;1.55;;;1.10;;
19285;SDS011;9776;50.798;6.430;2023-07-29T00:29:14;1.95;;;1.30;;
19285;SDS011;9776;50.798;6.430;2023-07-29T00:31:42;2.42;;;1.10;;
19285;SDS011;9776;50.798;6.430;2023-07-29T00:34:09;2.30;;;1.10;;
19285;SDS011;9776;50.798;6.430;2023-07-29T00:36:35;1.55;;;1.30;;
19285;SDS011;9776;50.798;6.430;2023-07-29T00:39:02;2.22;;;1.30;;
19285;SDS011;9776;50.798;6.430;2023-07-29T00:41:29;3.03;;;1.20;;
19285;SDS011;9776;50.798;6.430;2023-07-29T00:43:55;2.28;;;1.10;;
19285;SDS011;9776;50.798;6.430;2023-07-29T00:46:22;2.58;;;1.30;;
19285;SDS011;9776;50.798;6.430;2023-07-29T00:48:52;1.33;;;1.08;;
19285;SDS011;9776;50.798;6.430;2023-07-29T00:51:18;1.30;;;0.90;;
19285;SDS011;9776;50.798;6.430;2023-07-29T00:53:45;1.73;;;0.90;;
19285;SDS011;9776;50.798;6.430;2023-07-29T00:56:13;1.95;;;1.00;;
19285;SDS011;9776;50.798;6.430;2023-07-29T00:58:39;2.15;;;1.10;;
19285;SDS011;9776;50.798;6.430;2023-07-29T01:01:06;1.48;;;0.80;;
19285;SDS011;9776;50.798;6.430;2023-07-29T01:03:33;1.20;;;0.80;;
19285;SDS011;9776;50.798;6.430;2023-07-29T01:06:04;1.65;;;0.90;;
19285;SDS011;9776;50.798;6.430;2023-07-29T01:08:42;1.55;;;0.70;;
19285;SDS011;9776;50.798;6.430;2023-07-29T01:11:17;1.63;;;1.00;;
19285;SDS011;9776;50.798;6.430;2023-07-29T01:13:58;2.28;;;0.93;;
19285;SDS011;9776;50.798;6.430;2023-07-29T01:16:30;3.33;;;0.85;;
19285;SDS011;9776;50.798;6.430;2023-07-29T01:19:03;2.33;;;0.85;;
19285;SDS011;9776;50.798;6.430;2023-07-29T01:21:34;1.38;;;1.05;;
19285;SDS011;9776;50.798;6.430;2023-07-29T01:24:03;1.75;;;1.00;;
19285;SDS011;9776;50.798;6.430;2023-07-29T01:26:30;1.70;;;0.98;;
19285;SDS011;9776;50.798;6.430;2023-07-29T01:28:57;1.75;;;0.70;;
19285;SDS011;9776;50.798;6.430;2023-07-29T01:31:27;1.40;;;0.68;;
19285;SDS011;9776;50.798;6.430;2023-07-29T01:34:01;1.90;;;0.68;;
19285;SDS011;9776;50.798;6.430;2023-07-29T01:36:35;1.40;;;0.85;;
19285;SDS011;9776;50.798;6.430;2023-07-29T01:39:07;1.13;;;0.50;;
19285;SDS011;9776;50.798;6.430;2023-07-29T01:41:36;1.50;;;0.70;;
19285;SDS011;9776;50.798;6.430;2023-07-29T01:44:04;0.40;;;0.40;;
19285;SDS011;9776;50.798;6.430;2023-07-29T01:46:32;0.82;;;0.50;;
19285;SDS011;9776;50.798;6.430;2023-07-29T01:48:59;0.80;;;0.52;;
19285;SDS011;9776;50.798;6.430;2023-07-29T01:51:26;1.75;;;0.70;;
19285;SDS011;9776;50.798;6.430;2023-07-29T01:53:53;1.20;;;0.50;;
19285;SDS011;9776;50.798;6.430;2023-07-29T01:56:22;0.50;;;0.40;;
19285;SDS011;9776;50.798;6.430;2023-07-29T01:58:48;1.95;;;0.60;;
19285;SDS011;9776;50.798;6.430;2023-07-29T02:01:15;1.20;;;0.50;;
19285;SDS011;9776;50.798;6.430;2023-07-29T02:03:42;0.65;;;0.40;;
19285;SDS011;9776;50.798;6.430;2023-07-29T02:06:08;1.08;;;0.43;;
19285;SDS011;9776;50.798;6.430;2023-07-29T02:08:35;0.95;;;0.43;;
19285;SDS011;9776;50.798;6.430;2023-07-29T02:11:02;1.10;;;0.60;;
19285;SDS011;9776;50.798;6.430;2023-07-29T02:13:31;1.23;;;0.50;;
19285;SDS011;9776;50.798;6.430;2023-07-29T02:15:57;0.80;;;0.40;;
19285;SDS011;9776;50.798;6.430;2023-07-29T02:18:24;0.55;;;0.40;;
19285;SDS011;9776;50.798;6.430;2023-07-29T02:20:51;1.05;;;0.60;;
19285;SDS011;9776;50.798;6.430;2023-07-29T02:23:18;0.50;;;0.40;;
19285;SDS011;9776;50.798;6.430;2023-07-29T02:25:44;0.30;;;0.30;;
19285;SDS011;9776;50.798;6.430;2023-07-29T02:28:11;2.25;;;0.47;;
19285;SDS011;9776;50.798;6.430;2023-07-29T02:30:40;0.70;;;0.50;;
19285;SDS011;9776;50.798;6.430;2023-07-29T02:33:09;1.00;;;0.60;;
19285;SDS011;9776;50.798;6.430;2023-07-29T02:35:36;0.90;;;0.50;;
19285;SDS011;9776;50.798;6.430;2023-07-29T02:38:02;0.93;;;0.40;;
19285;SDS011;9776;50.798;6.430;2023-07-29T02:40:29;0.60;;;0.52;;
19285;SDS011;9776;50.798;6.430;2023-07-29T02:42:56;0.63;;;0.60;;
19285;SDS011;9776;50.798;6.430;2023-07-29T02:45:23;1.00;;;0.70;;
19285;SDS011;9776;50.798;6.430;2023-07-29T02:47:51;1.02;;;0.70;;
19285;SDS011;9776;50.798;6.430;2023-07-29T02:50:18;0.70;;;0.60;;
19285;SDS011;9776;50.798;6.430;2023-07-29T02:52:45;0.85;;;0.63;;
19285;SDS011;9776;50.798;6.430;2023-07-29T02:55:11;0.73;;;0.55;;
19285;SDS011;9776;50.798;6.430;2023-07-29T02:57:38;1.15;;;0.65;;
19285;SDS011;9776;50.798;6.430;2023-07-29T03:00:05;0.80;;;0.70;;
19285;SDS011;9776;50.798;6.430;2023-07-29T03:02:33;0.75;;;0.60;;
19285;SDS011;9776;50.798;6.430;2023-07-29T03:05:01;3.67;;;0.70;;
19285;SDS011;9776;50.798;6.430;2023-07-29T03:07:28;1.20;;;0.77;;
19285;SDS011;9776;50.798;6.430;2023-07-29T03:09:55;1.02;;;0.70;;
19285;SDS011;9776;50.798;6.430;2023-07-29T03:12:22;1.02;;;0.70;;
19285;SDS011;9776;50.798;6.430;2023-07-29T03:14:49;1.13;;;0.70;;
19285;SDS011;9776;50.798;6.430;2023-07-29T03:17:15;1.23;;;0.77;;
19285;SDS011;9776;50.798;6.430;2023-07-29T03:19:42;1.33;;;0.90;;
19285;SDS011;9776;50.798;6.430;2023-07-29T03:22:10;1.17;;;0.80;;
19285;SDS011;9776;50.798;6.430;2023-07-29T03:24:37;1.20;;;0.70;;
19285;SDS011;9776;50.798;6.430;2023-07-29T03:27:04;1.80;;;0.90;;
19285;SDS011;9776;50.798;6.430;2023-07-29T03:29:32;2.20;;;1.02;;
19285;SDS011;9776;50.798;6.430;2023-07-29T03:31:58;0.93;;;0.75;;
19285;SDS011;9776;50.798;6.430;2023-07-29T03:34:25;1.40;;;0.95;;
19285;SDS011;9776;50.798;6.430;2023-07-29T03:36:52;1.98;;;0.77;;
19285;SDS011;9776;50.798;6.430;2023-07-29T03:39:20;1.17;;;1.00;;
19285;SDS011;9776;50.798;6.430;2023-07-29T03:41:46;1.08;;;0.80;;
19285;SDS011;9776;50.798;6.430;2023-07-29T03:44:13;1.00;;;0.90;;
19285;SDS011;9776;50.798;6.430;2023-07-29T03:46:40;1.25;;;0.90;;
19285;SDS011;9776;50.798;6.430;2023-07-29T03:49:06;1.10;;;0.85;;
19285;SDS011;9776;50.798;6.430;2023-07-29T03:51:33;1.80;;;0.98;;
19285;SDS011;9776;50.798;6.430;2023-07-29T03:54:00;1.08;;;0.80;;
19285;SDS011;9776;50.798;6.430;2023-07-29T03:56:28;1.23;;;0.88;;
19285;SDS011;9776;50.798;6.430;2023-07-29T03:59:01;1.30;;;1.02;;
19285;SDS011;9776;50.798;6.430;2023-07-29T04:01:29;1.05;;;0.90;;
19285;SDS011;9776;50.798;6.430;2023-07-29T04:03:56;1.10;;;0.70;;
19285;SDS011;9776;50.798;6.430;2023-07-29T04:06:22;1.20;;;0.82;;
19285;SDS011;9776;50.798;6.430;2023-07-29T04:08:49;1.10;;;0.80;;
19285;SDS011;9776;50.798;6.430;2023-07-29T04:11:16;1.77;;;1.13;;
19285;SDS011;9776;50.798;6.430;2023-07-29T04:13:44;1.90;;;1.25;;
19285;SDS011;9776;50.798;6.430;2023-07-29T04:16:11;1.08;;;0.90;;
19285;SDS011;9776;50.798;6.430;2023-07-29T04:18:38;1.23;;;1.00;;
19285;SDS011;9776;50.798;6.430;2023-07-29T04:21:05;1.40;;;1.00;;
19285;SDS011;9776;50.798;6.430;2023-07-29T04:23:31;1.60;;;1.02;;
19285;SDS011;9776;50.798;6.430;2023-07-29T04:25:58;2.45;;;1.10;;
19285;SDS011;9776;50.798;6.430;2023-07-29T04:28:25;2.15;;;1.10;;
19285;SDS011;9776;50.798;6.430;2023-07-29T04:30:53;1.23;;;0.90;;
19285;SDS011;9776;50.798;6.430;2023-07-29T04:33:20;1.70;;;0.85;;
19285;SDS011;9776;50.798;6.430;2023-07-29T04:35:46;3.60;;;1.10;;
19285;SDS011;9776;50.798;6.430;2023-07-29T04:38:13;1.52;;;1.13;;
19285;SDS011;9776;50.798;6.430;2023-07-29T04:40:40;3.38;;;1.27;;
19285;SDS011;9776;50.798;6.430;2023-07-29T04:43:08;1.58;;;1.00;;
19285;SDS011;9776;50.798;6.430;2023-07-29T04:45:34;1.50;;;1.10;;
19285;SDS011;9776;50.798;6.430;2023-07-29T04:48:03;1.65;;;1.10;;
19285;SDS011;9776;50.798;6.430;2023-07-29T04:50:30;2.00;;;1.20;;
19285;SDS011;9776;50.798;6.430;2023-07-29T04:52:56;2.05;;;1.30;;
19285;SDS011;9776;50.798;6.430;2023-07-29T04:55:23;1.65;;;1.33;;
19285;SDS011;9776;50.798;6.430;2023-07-29T04:57:50;3.05;;;1.20;;
19285;SDS011;9776;50.798;6.430;2023-07-29T05:00:17;1.77;;;1.17;;
19285;SDS011;9776;50.798;6.430;2023-07-29T05:02:43;1.98;;;1.25;;
19285;SDS011;9776;50.798;6.430;2023-07-29T05:05:12;1.50;;;1.20;;
19285;SDS011;9776;50.798;6.430;2023-07-29T05:07:39;2.97;;;1.30;;
19285;SDS011;9776;50.798;6.430;2023-07-29T05:10:06;2.80;;;1.42;;
19285;SDS011;9776;50.798;6.430;2023-07-29T05:12:34;2.58;;;1.40;;
19285;SDS011;9776;50.798;6.430;2023-07-29T05:15:00;3.13;;;1.40;;
19285;SDS011;9776;50.798;6.430;2023-07-29T05:17:27;1.83;;;1.42;;
19285;SDS011;9776;50.798;6.430;2023-07-29T05:19:54;1.67;;;1.27;;
19285;SDS011;9776;50.798;6.430;2023-07-29T05:22:22;1.90;;;1.45;;
19285;SDS011;9776;50.798;6.430;2023-07-29T05:24:50;1.58;;;1.40;;
19285;SDS011;9776;50.798;6.430;2023-07-29T05:27:16;2.42;;;1.60;;
19285;SDS011;9776;50.798;6.430;2023-07-29T05:29:43;1.98;;;1.50;;
19285;SDS011;9776;50.798;6.430;2023-07-29T05:32:10;2.13;;;1.58;;
19285;SDS011;9776;50.798;6.430;2023-07-29T05:34:37;2.25;;;1.40;;
19285;SDS011;9776;50.798;6.430;2023-07-29T05:37:04;1.95;;;1.45;;
19285;SDS011;9776;50.798;6.430;2023-07-29T05:39:32;2.13;;;1.50;;
19285;SDS011;9776;50.798;6.430;2023-07-29T05:41:59;1.98;;;1.58;;
19285;SDS011;9776;50.798;6.430;2023-07-29T05:44:27;2.55;;;1.90;;
19285;SDS011;9776;50.798;6.430;2023-07-29T05:46:55;3.08;;;1.98;;
19285;SDS011;9776;50.798;6.430;2023-07-29T05:49:22;2.85;;;2.13;;
19285;SDS011;9776;50.798;6.430;2023-07-29T05:51:48;3.65;;;2.47;;
19285;SDS011;9776;50.798;6.430;2023-07-29T05:54:17;5.70;;;2.60;;
19285;SDS011;9776;50.798;6.430;2023-07-29T05:56:46;4.35;;;2.70;;
19285;SDS011;9776;50.798;6.430;2023-07-29T05:59:13;3.03;;;2.47;;
19285;SDS011;9776;50.798;6.430;2023-07-29T06:01:40;4.65;;;2.42;;
19285;SDS011;9776;50.798;6.430;2023-07-29T06:04:06;3.60;;;2.40;;
19285;SDS011;9776;50.798;6.430;2023-07-29T06:06:33;2.78;;;2.20;;
19285;SDS011;9776;50.798;6.430;2023-07-29T06:09:00;3.45;;;2.33;;
19285;SDS011;9776;50.798;6.430;2023-07-29T06:11:26;3.30;;;2.25;;
19285;SDS011;9776;50.798;6.430;2023-07-29T06:13:54;3.00;;;2.00;;
19285;SDS011;9776;50.798;6.430;2023-07-29T06:16:21;2.35;;;1.83;;
19285;SDS011;9776;50.798;6.430;2023-07-29T06:18:48;2.63;;;2.00;;
19285;SDS011;9776;50.798;6.430;2023-07-29T06:21:15;1.77;;;1.60;;
19285;SDS011;9776;50.798;6.430;2023-07-29T06:23:44;2.53;;;1.85;;
19285;SDS011;9776;50.798;6.430;2023-07-29T06:26:10;2.60;;;1.65;;
19285;SDS011;9776;50.798;6.430;2023-07-29T06:28:37;4.65;;;1.67;;
19285;SDS011;9776;50.798;6.430;2023-07-29T06:31:05;3.78;;;1.98;;
19285;SDS011;9776;50.798;6.430;2023-07-29T06:33:32;2.70;;;1.40;;
19285;SDS011;9776;50.798;6.430;2023-07-29T06:35:59;3.35;;;1.85;;
19285;SDS011;9776;50.798;6.430;2023-07-29T06:38:25;2.08;;;1.70;;
19285;SDS011;9776;50.798;6.430;2023-07-29T06:40:52;3.50;;;1.88;;
19285;SDS011;9776;50.798;6.430;2023-07-29T06:43:19;2.22;;;1.50;;
19285;SDS011;9776;50.798;6.430;2023-07-29T06:45:46;1.92;;;1.60;;
19285;SDS011;9776;50.798;6.430;2023-07-29T06:48:14;2.10;;;1.50;;
19285;SDS011;9776;50.798;6.430;2023-07-29T06:50:41;2.75;;;1.30;;
19285;SDS011;9776;50.798;6.430;2023-07-29T06:53:07;2.88;;;1.20;;
19285;SDS011;9776;50.798;6.430;2023-07-29T06:55:35;2.50;;;1.20;;
19285;SDS011;9776;50.798;6.430;2023-07-29T06:58:02;2.50;;;1.52;;
19285;SDS011;9776;50.798;6.430;2023-07-29T07:00:29;2.17;;;1.05;;
19285;SDS011;9776;50.798;6.430;2023-07-29T07:02:55;2.03;;;1.15;;
19285;SDS011;9776;50.798;6.430;2023-07-29T07:05:23;1.63;;;1.05;;
19285;SDS011;9776;50.798;6.430;2023-07-29T07:07:50;1.20;;;1.08;;
19285;SDS011;9776;50.798;6.430;2023-07-29T07:10:17;1.60;;;1.20;;
19285;SDS011;9776;50.798;6.430;2023-07-29T07:12:44;1.60;;;1.20;;
19285;SDS011;9776;50.798;6.430;2023-07-29T07:15:11;2.10;;;1.17;;
19285;SDS011;9776;50.798;6.430;2023-07-29T07:17:37;1.90;;;1.00;;
19285;SDS011;9776;50.798;6.430;2023-07-29T07:20:05;1.60;;;1.00;;
19285;SDS011;9776;50.798;6.430;2023-07-29T07:22:34;1.45;;;1.20;;
19285;SDS011;9776;50.798;6.430;2023-07-29T07:25:01;1.67;;;1.27;;
19285;SDS011;9776;50.798;6.430;2023-07-29T07:27:28;2.08;;;1.25;;
19285;SDS011;9776;50.798;6.430;2023-07-29T07:29:55;2.55;;;1.13;;
19285;SDS011;9776;50.798;6.430;2023-07-29T07:32:22;1.88;;;1.00;;
19285;SDS011;9776;50.798;6.430;2023-07-29T07:34:48;1.30;;;0.80;;
19285;SDS011;9776;50.798;6.430;2023-07-29T07:37:15;1.50;;;1.00;;
19285;SDS011;9776;50.798;6.430;2023-07-29T07:39:43;1.55;;;0.80;;
19285;SDS011;9776;50.798;6.430;2023-07-29T07:42:10;3.33;;;0.90;;
19285;SDS011;9776;50.798;6.430;2023-07-29T07:44:37;2.13;;;1.08;;
19285;SDS011;9776;50.798;6.430;2023-07-29T07:47:03;1.08;;;0.88;;
19285;SDS011;9776;50.798;6.430;2023-07-29T07:49:30;1.88;;;1.00;;
19285;SDS011;9776;50.798;6.430;2023-07-29T07:51:57;1.45;;;0.80;;
19285;SDS011;9776;50.798;6.430;2023-07-29T07:54:24;1.90;;;0.90;;
19285;SDS011;9776;50.798;6.430;2023-07-29T07:56:52;1.75;;;0.98;;
19285;SDS011;9776;50.798;6.430;2023-07-29T07:59:19;3.35;;;1.05;;
19285;SDS011;9776;50.798;6.430;2023-07-29T08:01:45;2.22;;;0.93;;
19285;SDS011;9776;50.798;6.430;2023-07-29T08:04:12;1.58;;;1.00;;
19285;SDS011;9776;50.798;6.430;2023-07-29T08:06:39;1.38;;;0.85;;
19285;SDS011;9776;50.798;6.430;2023-07-29T08:09:06;1.00;;;0.70;;
19285;SDS011;9776;50.798;6.430;2023-07-29T08:11:33;1.42;;;0.80;;
19285;SDS011;9776;50.798;6.430;2023-07-29T08:14:01;1.30;;;0.90;;
19285;SDS011;9776;50.798;6.430;2023-07-29T08:16:28;2.10;;;0.82;;
19285;SDS011;9776;50.798;6.430;2023-07-29T08:18:55;1.20;;;0.70;;
19285;SDS011;9776;50.798;6.430;2023-07-29T08:21:21;1.40;;;0.80;;
19285;SDS011;9776;50.798;6.430;2023-07-29T08:23:48;2.63;;;0.52;;
19285;SDS011;9776;50.798;6.430;2023-07-29T08:26:15;1.35;;;0.77;;
19285;SDS011;9776;50.798;6.430;2023-07-29T08:28:42;1.52;;;0.93;;
19285;SDS011;9776;50.798;6.430;2023-07-29T08:31:10;1.33;;;0.90;;
19285;SDS011;9776;50.798;6.430;2023-07-29T08:33:37;1.65;;;0.80;;
19285;SDS011;9776;50.798;6.430;2023-07-29T08:36:03;1.98;;;0.80;;
19285;SDS011;9776;50.798;6.430;2023-07-29T08:38:31;1.95;;;0.80;;
19285;SDS011;9776;50.798;6.430;2023-07-29T08:40:59;1.13;;;0.80;;
19285;SDS011;9776;50.798;6.430;2023-07-29T08:43:34;2.17;;;0.70;;
19285;SDS011;9776;50.798;6.430;2023-07-29T08:46:04;1.30;;;0.68;;
19285;SDS011;9776;50.798;6.430;2023-07-29T08:48:36;1.42;;;0.70;;
19285;SDS011;9776;50.798;6.430;2023-07-29T08:51:06;2.53;;;1.00;;
19285;SDS011;9776;50.798;6.430;2023-07-29T08:53:35;1.30;;;0.90;;
19285;SDS011;9776;50.798;6.430;2023-07-29T08:56:02;1.35;;;0.85;;
19285;SDS011;9776;50.798;6.430;2023-07-29T08:58:30;0.80;;;0.52;;
19285;SDS011;9776;50.798;6.430;2023-07-29T09:00:58;0.80;;;0.50;;
19285;SDS011;9776;50.798;6.430;2023-07-29T09:03:24;1.17;;;0.60;;
19285;SDS011;9776;50.798;6.430;2023-07-29T09:05:53;2.10;;;0.80;;
19285;SDS011;9776;50.798;6.430;2023-07-29T09:08:23;0.90;;;0.60;;
19285;SDS011;9776;50.798;6.430;2023-07-29T09:10:51;1.20;;;0.73;;
19285;SDS011;9776;50.798;6.430;2023-07-29T09:13:18;1.23;;;0.80;;
19285;SDS011;9776;50.798;6.430;2023-07-29T09:15:45;1.20;;;0.70;;
19285;SDS011;9776;50.798;6.430;2023-07-29T09:18:14;1.30;;;0.80;;
19285;SDS011;9776;50.798;6.430;2023-07-29T09:20:42;1.65;;;0.80;;
19285;SDS011;9776;50.798;6.430;2023-07-29T09:23:10;2.20;;;1.00;;
19285;SDS011;9776;50.798;6.430;2023-07-29T09:25:37;1.58;;;0.60;;
19285;SDS011;9776;50.798;6.430;2023-07-29T09:28:08;0.93;;;0.60;;
19285;SDS011;9776;50.798;6.430;2023-07-29T09:30:36;1.63;;;0.88;;
19285;SDS011;9776;50.798;6.430;2023-07-29T09:33:04;0.98;;;0.68;;
19285;SDS011;9776;50.798;6.430;2023-07-29T09:35:32;1.38;;;0.70;;
19285;SDS011;9776;50.798;6.430;2023-07-29T09:38:00;1.48;;;0.90;;
19285;SDS011;9776;50.798;6.430;2023-07-29T09:40:28;1.30;;;0.80;;
19285;SDS011;9776;50.798;6.430;2023-07-29T09:43:01;1.80;;;0.88;;
19285;SDS011;9776;50.798;6.430;2023-07-29T09:45:29;1.58;;;0.85;;
19285;SDS011;9776;50.798;6.430;2023-07-29T09:47:56;1.10;;;0.60;;
19285;SDS011;9776;50.798;6.430;2023-07-29T09:50:24;1.13;;;0.60;;
19285;SDS011;9776;50.798;6.430;2023-07-29T09:52:52;3.38;;;0.80;;
19285;SDS011;9776;50.798;6.430;2023-07-29T09:55:21;2.35;;;0.80;;
19285;SDS011;9776;50.798;6.430;2023-07-29T09:57:54;1.33;;;0.57;;
19285;SDS011;9776;50.798;6.430;2023-07-29T10:00:22;1.35;;;0.80;;
19285;SDS011;9776;50.798;6.430;2023-07-29T10:02:50;1.98;;;0.73;;
19285;SDS011;9776;50.798;6.430;2023-07-29T10:05:18;1.08;;;0.70;;
19285;SDS011;9776;50.798;6.430;2023-07-29T10:07:46;2.40;;;0.88;;
19285;SDS011;9776;50.798;6.430;2023-07-29T10:10:14;1.38;;;0.70;;
19285;SDS011;9776;50.798;6.430;2023-07-29T10:12:41;1.52;;;0.70;;
19285;SDS011;9776;50.798;6.430;2023-07-29T10:15:11;1.58;;;0.80;;
19285;SDS011;9776;50.798;6.430;2023-07-29T10:17:38;2.65;;;0.90;;
19285;SDS011;9776;50.798;6.430;2023-07-29T10:20:06;1.83;;;1.05;;
19285;SDS011;9776;50.798;6.430;2023-07-29T10:22:35;1.83;;;0.70;;
19285;SDS011;9776;50.798;6.430;2023-07-29T10:25:03;1.27;;;0.77;;
19285;SDS011;9776;50.798;6.430;2023-07-29T10:27:35;1.08;;;0.80;;
19285;SDS011;9776;50.798;6.430;2023-07-29T10:30:11;1.35;;;0.82;;
19285;SDS011;9776;50.798;6.430;2023-07-29T10:32:41;1.23;;;0.75;;
19285;SDS011;9776;50.798;6.430;2023-07-29T10:35:09;0.95;;;0.70;;
19285;SDS011;9776;50.798;6.430;2023-07-29T10:37:36;1.30;;;0.70;;
19285;SDS011;9776;50.798;6.430;2023-07-29T10:40:05;1.38;;;0.82;;
19285;SDS011;9776;50.798;6.430;2023-07-29T10:42:34;1.10;;;0.73;;
19285;SDS011;9776;50.798;6.430;2023-07-29T10:45:06;1.13;;;0.70;;
19285;SDS011;9776;50.798;6.430;2023-07-29T10:47:45;1.05;;;0.70;;
19285;SDS011;9776;50.798;6.430;2023-07-29T10:50:16;1.00;;;0.70;;
19285;SDS011;9776;50.798;6.430;2023-07-29T10:52:46;1.13;;;0.65;;
19285;SDS011;9776;50.798;6.430;2023-07-29T10:55:27;0.85;;;0.50;;
19285;SDS011;9776;50.798;6.430;2023-07-29T10:58:05;1.20;;;0.63;;
19285;SDS011;9776;50.798;6.430;2023-07-29T11:00:35;1.63;;;0.55;;
19285;SDS011;9776;50.798;6.430;2023-07-29T11:03:02;2.55;;;0.70;;
19285;SDS011;9776;50.798;6.430;2023-07-29T11:05:44;1.30;;;0.60;;
19285;SDS011;9776;50.798;6.430;2023-07-29T11:08:19;0.70;;;0.40;;
19285;SDS011;9776;50.798;6.430;2023-07-29T11:11:04;0.93;;;0.50;;
19285;SDS011;9776;50.798;6.430;2023-07-29T11:13:32;0.80;;;0.60;;
19285;SDS011;9776;50.798;6.430;2023-07-29T11:16:02;0.90;;;0.70;;
19285;SDS011;9776;50.798;6.430;2023-07-29T11:18:30;0.55;;;0.40;;
19285;SDS011;9776;50.798;6.430;2023-07-29T11:20:58;1.80;;;0.50;;
19285;SDS011;9776;50.798;6.430;2023-07-29T11:23:32;1.73;;;0.50;;
19285;SDS011;9776;50.798;6.430;2023-07-29T11:26:01;1.10;;;0.60;;
19285;SDS011;9776;50.798;6.430;2023-07-29T11:28:29;0.70;;;0.60;;
19285;SDS011;9776;50.798;6.430;2023-07-29T11:30:56;1.13;;;0.60;;
19285;SDS011;9776;50.798;6.430;2023-07-29T11:33:25;1.10;;;0.60;;
19285;SDS011;9776;50.798;6.430;2023-07-29T11:35:53;0.77;;;0.50;;
19285;SDS011;9776;50.798;6.430;2023-07-29T11:38:20;1.20;;;0.70;;
19285;SDS011;9776;50.798;6.430;2023-07-29T11:40:58;2.28;;;0.70;;
19285;SDS011;9776;50.798;6.430;2023-07-29T11:43:28;1.70;;;0.63;;
19285;SDS011;9776;50.798;6.430;2023-07-29T11:45:54;2.65;;;0.50;;
19285;SDS011;9776;50.798;6.430;2023-07-29T11:48:30;0.98;;;0.50;;
19285;SDS011;9776;50.798;6.430;2023-07-29T11:50:58;0.85;;;0.57;;
19285;SDS011;9776;50.798;6.430;2023-07-29T11:53:26;0.77;;;0.47;;
19285;SDS011;9776;50.798;6.430;2023-07-29T11:55:54;0.82;;;0.68;;
19285;SDS011;9776;50.798;6.430;2023-07-29T11:58:21;1.73;;;0.70;;
19285;SDS011;9776;50.798;6.430;2023-07-29T12:00:48;0.60;;;0.52;;
19285;SDS011;9776;50.798;6.430;2023-07-29T12:03:15;2.10;;;0.70;;
19285;SDS011;9776;50.798;6.430;2023-07-29T12:05:44;2.88;;;0.60;;
19285;SDS011;9776;50.798;6.430;2023-07-29T12:08:11;1.40;;;0.50;;
19285;SDS011;9776;50.798;6.430;2023-07-29T12:10:38;0.93;;;0.60;;
19285;SDS011;9776;50.798;6.430;2023-07-29T12:13:05;1.25;;;0.65;;
19285;SDS011;9776;50.798;6.430;2023-07-29T12:15:34;0.82;;;0.52;;
19285;SDS011;9776;50.798;6.430;2023-07-29T12:18:01;0.90;;;0.52;;
19285;SDS011;9776;50.798;6.430;2023-07-29T12:20:28;0.68;;;0.50;;
19285;SDS011;9776;50.798;6.430;2023-07-29T12:22:57;0.80;;;0.50;;
19285;SDS011;9776;50.798;6.430;2023-07-29T12:25:26;1.10;;;0.60;;
19285;SDS011;9776;50.798;6.430;2023-07-29T12:27:55;1.02;;;0.57;;
19285;SDS011;9776;50.798;6.430;2023-07-29T12:30:22;1.60;;;1.00;;
19285;SDS011;9776;50.798;6.430;2023-07-29T12:32:49;1.17;;;0.90;;
19285;SDS011;9776;50.798;6.430;2023-07-29T12:35:16;1.63;;;0.90;;
19285;SDS011;9776;50.798;6.430;2023-07-29T12:37:43;1.10;;;0.60;;
19285;SDS011;9776;50.798;6.430;2023-07-29T12:40:24;1.30;;;0.75;;
19285;SDS011;9776;50.798;6.430;2023-07-29T12:42:52;1.90;;;0.73;;
19285;SDS011;9776;50.798;6.430;2023-07-29T12:45:19;0.85;;;0.70;;
19285;SDS011;9776;50.798;6.430;2023-07-29T12:47:48;1.27;;;0.95;;
19285;SDS011;9776;50.798;6.430;2023-07-29T12:50:14;0.93;;;0.57;;
19285;SDS011;9776;50.798;6.430;2023-07-29T12:52:41;1.38;;;0.82;;
19285;SDS011;9776;50.798;6.430;2023-07-29T12:55:08;2.05;;;0.80;;
19285;SDS011;9776;50.798;6.430;2023-07-29T12:57:39;1.25;;;0.73;;
19285;SDS011;9776;50.798;6.430;2023-07-29T13:00:07;1.95;;;0.93;;
19285;SDS011;9776;50.798;6.430;2023-07-29T13:02:35;0.90;;;0.65;;
19285;SDS011;9776;50.798;6.430;2023-07-29T13:05:02;1.98;;;1.27;;
19285;SDS011;9776;50.798;6.430;2023-07-29T13:07:29;1.52;;;0.80;;
19285;SDS011;9776;50.798;6.430;2023-07-29T13:09:56;2.05;;;0.90;;
19285;SDS011;9776;50.798;6.430;2023-07-29T13:12:22;1.60;;;0.90;;
19285;SDS011;9776;50.798;6.430;2023-07-29T13:14:50;2.22;;;1.20;;
19285;SDS011;9776;50.798;6.430;2023-07-29T13:17:17;2.90;;;1.10;;
19285;SDS011;9776;50.798;6.430;2023-07-29T13:19:44;1.70;;;1.08;;
19285;SDS011;9776;50.798;6.430;2023-07-29T13:22:11;1.95;;;1.15;;
19285;SDS011;9776;50.798;6.430;2023-07-29T13:24:38;1.80;;;1.20;;
19285;SDS011;9776;50.798;6.430;2023-07-29T13:27:05;4.22;;;1.27;;
19285;SDS011;9776;50.798;6.430;2023-07-29T13:29:31;2.10;;;1.38;;
19285;SDS011;9776;50.798;6.430;2023-07-29T13:31:59;2.38;;;1.45;;
19285;SDS011;9776;50.798;6.430;2023-07-29T13:34:26;2.38;;;1.30;;
19285;SDS011;9776;50.798;6.430;2023-07-29T13:36:53;2.08;;;1.20;;
19285;SDS011;9776;50.798;6.430;2023-07-29T13:39:20;2.35;;;1.50;;
19285;SDS011;9776;50.798;6.430;2023-07-29T13:41:47;2.88;;;1.42;;
19285;SDS011;9776;50.798;6.430;2023-07-29T13:44:13;2.33;;;1.55;;
19285;SDS011;9776;50.798;6.430;2023-07-29T13:46:40;2.40;;;1.27;;
19285;SDS011;9776;50.798;6.430;2023-07-29T13:49:08;2.35;;;1.10;;
19285;SDS011;9776;50.798;6.430;2023-07-29T13:51:35;3.10;;;1.63;;
19285;SDS011;9776;50.798;6.430;2023-07-29T13:54:02;1.63;;;1.02;;
19285;SDS011;9776;50.798;6.430;2023-07-29T13:56:28;3.28;;;1.20;;
19285;SDS011;9776;50.798;6.430;2023-07-29T13:58:55;1.77;;;0.90;;
19285;SDS011;9776;50.798;6.430;2023-07-29T14:01:22;2.35;;;1.40;;
19285;SDS011;9776;50.798;6.430;2023-07-29T14:03:49;1.60;;;1.10;;
19285;SDS011;9776;50.798;6.430;2023-07-29T14:06:17;3.42;;;1.67;;
19285;SDS011;9776;50.798;6.430;2023-07-29T14:08:44;2.55;;;1.42;;
19285;SDS011;9776;50.798;6.430;2023-07-29T14:11:10;1.77;;;1.30;;
19285;SDS011;9776;50.798;6.430;2023-07-29T14:13:37;1.95;;;1.20;;
19285;SDS011;9776;50.798;6.430;2023-07-29T14:16:04;3.25;;;1.60;;
19285;SDS011;9776;50.798;6.430;2023-07-29T14:18:31;3.05;;;1.30;;
19285;SDS011;9776;50.798;6.430;2023-07-29T14:20:57;4.30;;;1.48;;
19285;SDS011;9776;50.798;6.430;2023-07-29T14:23:26;3.28;;;1.30;;
19285;SDS011;9776;50.798;6.430;2023-07-29T14:25:53;1.90;;;1.30;;
19285;SDS011;9776;50.798;6.430;2023-07-29T14:28:19;2.40;;;1.40;;
19285;SDS011;9776;50.798;6.430;2023-07-29T14:30:46;2.83;;;1.48;;
19285;SDS011;9776;50.798;6.430;2023-07-29T14:33:13;3.75;;;1.40;;
19285;SDS011;9776;50.798;6.430;2023-07-29T14:35:40;2.00;;;1.10;;
19285;SDS011;9776;50.798;6.430;2023-07-29T14:38:07;1.65;;;1.13;;
19285;SDS011;9776;50.798;6.430;2023-07-29T14:40:35;4.68;;;1.20;;
19285;SDS011;9776;50.798;6.430;2023-07-29T14:43:02;2.30;;;1.30;;
19285;SDS011;9776;50.798;6.430;2023-07-29T14:45:29;2.40;;;1.13;;
19285;SDS011;9776;50.798;6.430;2023-07-29T14:47:56;2.67;;;1.50;;
19285;SDS011;9776;50.798;6.430;2023-07-29T14:50:23;1.90;;;1.17;;
19285;SDS011;9776;50.798;6.430;2023-07-29T14:52:50;2.25;;;1.45;;
19285;SDS011;9776;50.798;6.430;2023-07-29T14:55:16;4.93;;;2.05;;
19285;SDS011;9776;50.798;6.430;2023-07-29T14:57:45;2.30;;;1.27;;
19285;SDS011;9776;50.798;6.430;2023-07-29T15:00:12;2.55;;;1.52;;
19285;SDS011;9776;50.798;6.430;2023-07-29T15:02:39;1.90;;;1.20;;
19285;SDS011;9776;50.798;6.430;2023-07-29T15:05:07;2.33;;;1.35;;